Time;durP1;ratioP1;P1;durP2;ratioP2;P2;SDS_P1;SDS_P2;PMS_P1;PMS_P2;Temp;Humidity;BMP_temperature;BMP_pressure;BME280_temperature;BME280_humidity;BME280_pressure;Samples;Min_cycle;Max_cycle;Signal;HPM_P1;HPM_P2
2022/09/02 00:01:46;;;;;;;19.42;15.60;;;;;;;20.01;96.03;97346.13;10330455;28;20454;-57
2022/09/02 00:06:47;;;;;;;20.92;14.90;;;;;;;19.99;95.91;97345.34;10330422;28;20538;-57
2022/09/02 00:11:48;;;;;;;21.20;16.75;;;;;;;19.89;96.19;97341.44;10330874;28;20506;-57
2022/09/02 00:16:50;;;;;;;21.13;16.40;;;;;;;19.89;96.21;97349.34;10329772;28;20056;-57
2022/09/02 00:21:51;;;;;;;21.73;16.77;;;;;;;19.94;96.25;97336.81;10329466;28;20064;-57
2022/09/02 00:26:50;;;;;;;20.80;16.48;;;;;;;19.97;96.35;97331.41;10327817;28;20092;-57
2022/09/02 00:31:49;;;;;;;21.13;16.70;;;;;;;19.95;96.36;97335.88;10330121;28;20072;-57
2022/09/02 00:36:48;;;;;;;22.65;16.17;;;;;;;19.95;96.13;97333.22;10329788;28;20091;-57
2022/09/02 00:41:47;;;;;;;21.10;15.95;;;;;;;19.97;96.01;97339.28;10328969;28;20032;-57
2022/09/02 00:46:46;;;;;;;22.10;16.20;;;;;;;19.98;95.80;97338.38;10328984;28;20081;-57
2022/09/02 00:51:51;;;;;;;19.30;15.60;;;;;;;19.91;95.96;97329.91;10330022;28;20064;-57
2022/09/02 00:56:52;;;;;;;20.27;16.02;;;;;;;19.91;95.90;97335.16;10325454;28;20080;-57
2022/09/02 01:01:51;;;;;;;20.85;15.63;;;;;;;19.93;95.97;97333.31;10328826;28;20562;-57
2022/09/02 01:06:51;;;;;;;20.77;15.57;;;;;;;19.92;95.88;97328.13;10329618;28;20483;-57
2022/09/02 01:11:52;;;;;;;20.58;16.08;;;;;;;19.91;95.54;97321.13;10328605;28;20069;-57
2022/09/02 01:16:54;;;;;;;21.45;15.10;;;;;;;19.82;95.69;97315.38;10329100;28;20518;-57
2022/09/02 01:21:55;;;;;;;19.60;15.82;;;;;;;19.79;96.30;97319.91;10328577;28;20079;-57
2022/09/02 01:26:56;;;;;;;20.90;17.00;;;;;;;19.80;96.28;97325.13;10325237;28;20079;-57
2022/09/02 01:31:56;;;;;;;24.83;16.67;;;;;;;19.79;96.38;97333.06;10328596;28;20057;-57
2022/09/02 01:36:55;;;;;;;19.92;17.45;;;;;;;19.81;96.53;97337.38;10328361;28;20069;-57
2022/09/02 01:41:54;;;;;;;21.20;16.67;;;;;;;19.84;96.54;97337.22;10328369;28;20025;-57
2022/09/02 01:46:54;;;;;;;18.88;16.10;;;;;;;19.76;96.89;97326.16;10327734;28;20069;-57
2022/09/02 01:51:54;;;;;;;22.73;17.27;;;;;;;19.78;96.79;97311.16;10328276;28;20061;-57
2022/09/02 01:56:54;;;;;;;22.02;17.10;;;;;;;19.77;96.77;97304.19;10324594;28;20060;-57
2022/09/02 02:01:52;;;;;;;21.95;17.25;;;;;;;19.69;97.03;97314.19;10328280;28;20095;-57
2022/09/02 02:06:51;;;;;;;22.83;18.17;;;;;;;19.66;97.08;97301.19;10327571;28;20052;-57
2022/09/02 02:11:51;;;;;;;25.33;17.20;;;;;;;19.66;97.24;97309.09;10335062;28;20034;-57
2022/09/02 02:16:50;;;;;;;23.95;17.80;;;;;;;19.63;97.42;97303.97;10334580;28;20065;-57
2022/09/02 02:21:49;;;;;;;25.08;18.77;;;;;;;19.65;97.51;97302.97;10334440;28;20079;-57
2022/09/02 02:26:48;;;;;;;26.00;17.90;;;;;;;19.68;97.69;97307.25;10331788;28;20067;-57
2022/09/02 02:31:48;;;;;;;24.63;19.15;;;;;;;19.68;97.77;97309.88;10335342;28;20065;-57
2022/09/02 02:36:47;;;;;;;26.90;19.77;;;;;;;19.69;97.94;97313.34;10333994;28;20065;-57
2022/09/02 02:41:46;;;;;;;27.20;21.17;;;;;;;19.71;97.89;97320.25;10333874;28;20037;-58
2022/09/02 02:46:45;;;;;;;31.27;20.92;;;;;;;19.71;97.96;97316.78;10333704;28;20072;-57
2022/09/02 02:51:44;;;;;;;25.50;19.13;;;;;;;19.73;98.07;97299.97;10333580;28;20037;-57
2022/09/02 02:56:43;;;;;;;26.00;20.77;;;;;;;19.60;98.94;97299.69;10332949;28;20547;-57
2022/09/02 03:01:42;;;;;;;27.63;21.20;;;;;;;19.53;99.49;97290.31;10331268;28;20494;-57
2022/09/02 03:06:41;;;;;;;27.77;21.98;;;;;;;19.51;99.71;97297.44;10332961;28;20051;-57
2022/09/02 03:11:40;;;;;;;31.92;24.02;;;;;;;19.47;100.00;97295.00;10333236;28;20069;-58
2022/09/02 03:16:39;;;;;;;33.85;23.33;;;;;;;19.47;100.00;97287.97;10331884;28;20088;-58
2022/09/02 03:21:39;;;;;;;29.70;23.90;;;;;;;19.41;100.00;97281.19;10332165;28;20061;-58
2022/09/02 03:26:40;;;;;;;32.08;24.20;;;;;;;19.45;100.00;97316.97;10333052;28;20053;-57
2022/09/02 03:31:39;;;;;;;33.10;24.95;;;;;;;19.39;100.00;97311.09;10329626;28;20065;-57
2022/09/02 03:36:39;;;;;;;29.85;23.58;;;;;;;19.27;100.00;97328.28;10331888;28;20022;-57
2022/09/02 03:41:40;;;;;;;37.58;27.38;;;;;;;18.66;100.00;97315.03;10331805;28;20069;-61
2022/09/02 03:46:39;;;;;;;38.25;27.92;;;;;;;18.16;100.00;97340.59;10330607;28;20080;-62
2022/09/02 03:51:41;;;;;;;42.10;29.73;;;;;;;17.99;100.00;97335.16;10331563;28;20064;-62
2022/09/02 03:56:40;;;;;;;40.35;29.02;;;;;;;17.96;100.00;97340.50;10330734;28;20117;-62
2022/09/02 04:01:40;;;;;;;42.53;28.60;;;;;;;17.94;100.00;97343.19;10327916;28;20483;-62
2022/09/02 04:06:39;;;;;;;47.30;30.65;;;;;;;18.01;100.00;97356.06;10330444;28;20465;-62
2022/09/02 04:11:41;;;;;;;43.88;28.80;;;;;;;18.00;100.00;97341.25;10329419;28;20460;-61
2022/09/02 04:16:41;;;;;;;42.80;29.75;;;;;;;18.02;100.00;97350.78;10329954;28;20057;-61
2022/09/02 04:21:40;;;;;;;41.20;30.52;;;;;;;18.02;100.00;97363.91;10330381;28;20056;-60
2022/09/02 04:26:39;;;;;;;43.28;29.52;;;;;;;18.08;100.00;97374.19;10329718;28;20053;-60
2022/09/02 04:31:38;;;;;;;45.63;32.05;;;;;;;18.16;100.00;97380.00;10327532;28;20507;-60
2022/09/02 04:36:37;;;;;;;51.78;33.53;;;;;;;18.14;100.00;97371.31;10330097;28;20025;-60
2022/09/02 04:41:37;;;;;;;47.63;33.90;;;;;;;18.09;100.00;97356.66;10329652;28;20040;-60
2022/09/02 04:46:36;;;;;;;50.15;33.00;;;;;;;18.14;100.00;97362.59;10328875;28;20080;-60
2022/09/02 04:51:34;;;;;;;48.97;33.13;;;;;;;18.14;100.00;97371.31;10369522;28;20024;-60
2022/09/02 04:56:33;;;;;;;52.72;33.88;;;;;;;18.13;100.00;97372.25;10337925;28;20527;-60
2022/09/02 05:01:35;;;;;;;52.10;35.33;;;;;;;18.16;100.00;97377.38;10328324;28;20127;-60
2022/09/02 05:06:35;;;;;;;53.05;35.17;;;;;;;18.23;100.00;97374.53;10328806;28;20073;-60
2022/09/02 05:11:34;;;;;;;54.10;35.25;;;;;;;18.34;100.00;97385.47;10327476;28;20088;-60
2022/09/02 05:16:37;;;;;;;43.45;30.27;;;;;;;18.44;100.00;97372.84;10327150;28;20061;-60
2022/09/02 05:21:41;;;;;;;42.80;28.25;;;;;;;18.24;100.00;97378.84;10328441;28;20072;-60
2022/09/02 05:26:43;;;;;;;44.45;30.10;;;;;;;18.12;100.00;97383.66;10348191;28;20468;-60
2022/09/02 05:31:42;;;;;;;43.88;28.67;;;;;;;18.16;100.00;97390.50;10327439;28;20060;-60
2022/09/02 05:36:41;;;;;;;46.25;30.52;;;;;;;18.16;100.00;97398.38;10329683;28;20049;-60
2022/09/02 05:41:41;;;;;;;44.72;31.58;;;;;;;18.22;100.00;97399.06;10326949;28;20810;-60
2022/09/02 05:46:40;;;;;;;39.55;28.17;;;;;;;18.30;100.00;97397.88;10332636;28;20137;-60
2022/09/02 05:51:54;;;;;;;41.00;28.17;;;;;;;18.12;100.00;97381.00;10319697;28;20041;-60
2022/09/02 05:56:56;;;;;;;41.42;29.88;;;;;;;18.15;100.00;97404.56;10328467;28;20141;-61
2022/09/02 06:01:56;;;;;;;42.35;29.45;;;;;;;18.11;100.00;97405.56;10330295;28;20068;-60
2022/09/02 06:06:55;;;;;;;40.22;27.23;;;;;;;18.09;100.00;97410.03;10335306;28;20053;-61
2022/09/02 06:11:54;;;;;;;30.75;23.65;;;;;;;18.00;100.00;97415.59;10336523;28;20491;-60
2022/09/02 06:16:54;;;;;;;34.05;22.75;;;;;;;17.98;100.00;97406.94;10334048;28;20499;-60
2022/09/02 06:21:54;;;;;;;32.83;23.67;;;;;;;18.00;100.00;97415.59;10326384;28;20132;-61
2022/09/02 06:26:54;;;;;;;30.55;21.15;;;;;;;18.00;100.00;97425.25;10334401;28;20064;-61
2022/09/02 06:31:53;;;;;;;29.08;21.58;;;;;;;17.96;100.00;97424.50;10334352;28;20057;-61
2022/09/02 06:36:52;;;;;;;28.95;21.77;;;;;;;18.04;100.00;97430.34;10331618;28;20120;-61
2022/09/02 06:41:52;;;;;;;32.53;21.27;;;;;;;18.19;100.00;97431.53;10340234;28;20107;-62
2022/09/02 06:46:56;;;;;;;26.77;19.08;;;;;;;18.43;100.00;97436.81;10331245;28;20081;-62
2022/09/02 06:51:56;;;;;;;24.65;19.73;;;;;;;18.53;100.00;97425.91;10338167;28;20129;-62
2022/09/02 06:56:56;;;;;;;23.08;18.20;;;;;;;18.51;100.00;97419.84;10332991;28;20084;-61
2022/09/02 07:01:55;;;;;;;23.52;18.35;;;;;;;18.63;100.00;97441.31;10332113;28;20484;-61
2022/09/02 07:06:55;;;;;;;25.27;18.88;;;;;;;18.73;100.00;97442.69;10331708;28;20883;-61
2022/09/02 07:11:54;;;;;;;23.45;16.25;;;;;;;18.74;100.00;97447.06;10322650;28;20091;-62
2022/09/02 07:16:56;;;;;;;21.15;15.70;;;;;;;18.70;100.00;97450.72;10327981;28;20036;-62
2022/09/02 07:21:55;;;;;;;22.95;16.27;;;;;;;18.86;100.00;97445.72;10334480;28;20533;-62
2022/09/02 07:26:54;;;;;;;18.40;14.73;;;;;;;19.08;100.00;97462.34;10328758;28;20505;-61
2022/09/02 07:31:53;;;;;;;21.15;15.27;;;;;;;19.26;100.00;97452.84;10327325;28;20064;-61
2022/09/02 07:36:52;;;;;;;19.83;14.25;;;;;;;19.37;100.00;97445.38;10341233;28;20064;-60
2022/09/02 07:41:51;;;;;;;12.93;10.02;;;;;;;19.32;100.00;97454.38;10332093;28;20116;-60
2022/09/02 07:46:51;;;;;;;11.80;9.38;;;;;;;19.06;100.00;97455.44;10330498;28;20099;-60
2022/09/02 07:51:50;;;;;;;11.85;8.32;;;;;;;19.41;100.00;97448.72;10332341;28;20055;-60
2022/09/02 07:56:50;;;;;;;10.13;8.57;;;;;;;19.60;100.00;97455.00;10338482;28;20065;-60
2022/09/02 08:01:51;;;;;;;12.27;8.40;;;;;;;19.76;100.00;97455.16;10332102;28;20466;-60
2022/09/02 08:06:52;;;;;;;10.30;8.13;;;;;;;19.83;100.00;97461.88;10318364;28;20073;-60
2022/09/02 08:11:52;;;;;;;10.68;8.80;;;;;;;19.85;100.00;97469.72;10332842;28;20069;-60
2022/09/02 08:16:52;;;;;;;11.32;8.93;;;;;;;19.96;100.00;97474.53;10325061;28;20125;-60
2022/09/02 08:21:52;;;;;;;13.00;8.57;;;;;;;19.90;100.00;97477.44;10331140;28;20708;-60
2022/09/02 08:26:51;;;;;;;13.23;8.43;;;;;;;19.78;100.00;97474.41;10331545;28;20069;-61
2022/09/02 08:31:50;;;;;;;11.55;8.70;;;;;;;19.58;100.00;97469.09;10331547;28;20026;-61
2022/09/02 08:36:49;;;;;;;10.25;7.28;;;;;;;19.56;100.00;97470.97;10331787;28;20068;-60
2022/09/02 08:42:16;;;;;;;9.73;7.18;;;;;;;19.57;100.00;97468.25;10331156;28;20028;-59
2022/09/02 08:47:20;;;;;;;10.57;8.55;;;;;;;19.51;100.00;97472.88;10327929;28;20471;-59
2022/09/02 08:52:43;;;;;;;12.57;8.90;;;;;;;19.65;100.00;97471.44;10331227;28;20459;-59
2022/09/02 08:57:44;;;;;;;11.13;9.32;;;;;;;19.74;100.00;97464.91;10322320;28;20104;-58
2022/09/02 09:03:17;;;;;;;13.20;9.88;;;;;;;19.74;100.00;97472.81;10323255;28;20112;-58
2022/09/02 09:08:43;;;;;;;17.70;12.13;;;;;;;19.75;100.00;97463.16;10330245;28;20527;-58
2022/09/02 09:14:03;;;;;;;17.85;10.93;;;;;;;19.91;100.00;97466.84;10329231;28;20109;-58
2022/09/02 09:19:07;;;;;;;15.02;11.20;;;;;;;20.03;100.00;97455.75;10325825;28;20510;-59
2022/09/02 09:24:31;;;;;;;16.38;11.77;;;;;;;20.22;100.00;97450.53;10330272;28;20089;-58
2022/09/02 09:29:32;;;;;;;13.85;10.70;;;;;;;20.43;100.00;97450.53;10324884;28;20068;-58
2022/09/02 09:35:01;;;;;;;14.63;10.20;;;;;;;20.83;100.00;97435.50;10328498;28;20462;-59
2022/09/02 09:40:00;;;;;;;11.80;9.77;;;;;;;21.46;100.00;97440.38;10327548;28;20092;-58
2022/09/02 09:44:59;;;;;;;14.35;9.80;;;;;;;22.08;100.00;97440.75;10324769;28;20084;-58
2022/09/02 09:50:11;;;;;;;9.82;8.35;;;;;;;22.37;100.00;97439.22;10326761;28;20073;-58
2022/09/02 09:55:19;;;;;;;10.10;8.45;;;;;;;22.54;100.00;97431.22;10328848;28;20081;-58
2022/09/02 10:00:32;;;;;;;11.07;8.47;;;;;;;22.69;100.00;97436.59;10327741;28;20080;-58
2022/09/02 10:05:38;;;;;;;9.38;7.72;;;;;;;22.81;100.00;97433.31;10325737;28;20507;-58
2022/09/02 10:10:37;;;;;;;11.10;8.55;;;;;;;22.78;97.67;97425.53;10349883;28;20083;-59
2022/09/02 10:15:53;;;;;;;10.23;8.18;;;;;;;22.75;96.54;97429.22;10343326;28;20080;-59
2022/09/02 10:21:41;;;;;;;12.52;9.40;;;;;;;22.82;93.36;97420.97;10324663;28;20513;-59
2022/09/02 10:26:47;;;;;;;10.38;9.05;;;;;;;22.88;92.04;97425.88;10310132;28;20125;-58
2022/09/02 10:32:10;;;;;;;9.70;7.60;;;;;;;23.05;88.39;97420.50;10293658;28;20089;-58
2022/09/02 10:37:47;;;;;;;10.38;8.90;;;;;;;23.15;86.60;97423.47;10312445;28;20514;-58
2022/09/02 10:43:20;;;;;;;11.15;9.48;;;;;;;23.16;84.32;97431.34;10315727;28;20517;-58
2022/09/02 10:48:41;;;;;;;12.10;9.90;;;;;;;23.13;87.73;97431.50;10312038;28;20073;-58
2022/09/02 10:54:09;;;;;;;9.88;8.30;;;;;;;23.12;88.48;97426.31;10322546;28;20112;-58
2022/09/02 10:59:23;;;;;;;10.07;9.00;;;;;;;23.11;89.48;97424.59;10332880;28;20129;-57
2022/09/02 11:04:31;;;;;;;9.85;8.85;;;;;;;23.15;90.05;97419.03;10335188;28;20068;-58
2022/09/02 11:09:46;;;;;;;11.47;8.73;;;;;;;23.04;87.90;97413.50;10334906;28;20482;-58
2022/09/02 11:15:09;;;;;;;10.73;8.68;;;;;;;23.07;86.09;97412.47;10334210;28;20069;-58
2022/09/02 11:20:15;;;;;;;11.02;9.32;;;;;;;23.21;86.72;97405.47;10335676;28;20073;-58
2022/09/02 11:25:20;;;;;;;9.88;8.23;;;;;;;23.29;84.95;97406.81;10331653;28;20084;-58
2022/09/02 11:30:24;;;;;;;9.43;8.45;;;;;;;23.46;85.00;97411.97;10334655;28;20069;-59
2022/09/02 11:35:26;;;;;;;14.82;8.75;;;;;;;23.61;83.21;97415.56;10334733;28;20463;-58
2022/09/02 11:41:02;;;;;;;10.05;8.07;;;;;;;23.72;79.81;97405.16;10333315;28;20076;-58
2022/09/02 11:46:30;;;;;;;9.77;8.68;;;;;;;23.76;79.92;97411.97;10295597;28;20092;-58
2022/09/02 11:51:57;;;;;;;9.98;8.80;;;;;;;23.79;78.18;97397.69;10319492;28;20463;-58
2022/09/02 11:57:01;;;;;;;17.63;9.32;;;;;;;23.91;79.17;97394.31;10333139;28;20077;-58
2022/09/02 12:02:01;;;;;;;12.63;7.65;;;;;;;24.18;80.42;97402.38;10333196;28;20072;-58
2022/09/02 12:07:07;;;;;;;10.05;8.38;;;;;;;24.40;76.02;97388.66;10329463;28;20072;-58
2022/09/02 12:12:06;;;;;;;10.85;7.88;;;;;;;24.35;74.62;97382.78;10331004;28;20482;-60
2022/09/02 12:17:07;;;;;;;12.05;8.68;;;;;;;24.25;73.65;97384.31;10330786;28;20124;-58
2022/09/02 12:22:15;;;;;;;9.00;7.35;;;;;;;24.31;74.59;97389.25;10306230;28;20125;-58
2022/09/02 12:27:35;;;;;;;9.13;7.95;;;;;;;24.18;74.77;97389.13;10323086;28;20068;-58
2022/09/02 12:33:11;;;;;;;11.70;8.50;;;;;;;24.02;74.98;97367.97;10325397;28;20079;-58
2022/09/02 12:38:10;;;;;;;10.02;8.45;;;;;;;24.21;74.31;97364.22;10310362;28;20077;-58
2022/09/02 12:43:24;;;;;;;11.25;8.23;;;;;;;23.91;74.04;97367.81;10323346;28;20049;-59
2022/09/02 12:48:34;;;;;;;11.32;9.13;;;;;;;23.98;75.93;97369.13;10325759;28;20087;-58
2022/09/02 12:53:45;;;;;;;13.25;9.30;;;;;;;24.01;73.61;97355.69;10318436;28;20120;-57
2022/09/02 12:58:47;;;;;;;9.93;7.90;;;;;;;24.20;73.16;97350.13;10322680;28;20112;-58
2022/09/02 13:04:10;;;;;;;10.30;8.80;;;;;;;24.84;73.04;97342.47;10322523;28;20123;-58
2022/09/02 13:09:14;;;;;;;10.45;8.15;;;;;;;24.88;69.20;97330.75;10326272;28;20456;-58
2022/09/02 13:14:44;;;;;;;11.93;9.02;;;;;;;25.19;69.23;97336.69;10329286;28;20538;-58
2022/09/02 13:20:02;;;;;;;10.50;9.30;;;;;;;25.20;65.78;97329.56;10328820;28;20060;-58
2022/09/02 13:25:01;;;;;;;11.63;9.50;;;;;;;25.15;67.07;97329.88;10329403;28;20068;-58
2022/09/02 13:30:15;;;;;;;11.43;9.75;;;;;;;25.21;68.22;97339.25;10329187;28;20037;-58
2022/09/02 13:35:22;;;;;;;15.00;10.55;;;;;;;25.02;68.13;97331.66;10331961;28;20069;-58
2022/09/02 13:40:32;;;;;;;11.60;10.40;;;;;;;24.67;69.62;97340.09;10328542;28;20490;-58
2022/09/02 13:45:34;;;;;;;14.20;10.43;;;;;;;24.31;71.19;97332.69;10328935;28;20084;-58
2022/09/02 13:50:33;;;;;;;14.25;11.60;;;;;;;24.10;71.73;97318.94;10327722;28;20068;-58
2022/09/02 13:55:33;;;;;;;10.40;9.35;;;;;;;23.91;69.44;97320.13;10328079;28;20514;-58
2022/09/02 14:00:37;;;;;;;12.90;10.68;;;;;;;23.55;71.29;97324.03;10328763;28;20519;-57
2022/09/02 14:05:39;;;;;;;12.73;10.35;;;;;;;23.10;72.98;97324.97;10331816;28;20061;-57
2022/09/02 14:10:40;;;;;;;15.18;10.57;;;;;;;22.78;75.42;97322.38;10335293;28;20069;-58
2022/09/02 14:15:39;;;;;;;16.75;12.60;;;;;;;22.52;76.70;97322.03;10335434;28;20581;-57
2022/09/02 14:21:00;;;;;;;16.65;11.50;;;;;;;22.30;78.23;97319.75;10335587;28;20380;-57
2022/09/02 14:26:01;;;;;;;27.02;19.92;;;;;;;22.16;80.92;97312.56;10334169;28;20108;-58
2022/09/02 14:31:05;;;;;;;32.72;19.85;;;;;;;21.60;84.33;97323.50;10335530;28;20067;-58
2022/09/02 14:36:25;;;;;;;24.60;18.35;;;;;;;20.98;89.06;97339.78;10335237;28;20080;-58
2022/09/02 14:41:29;;;;;;;;;;;;;;;20.52;93.33;97355.22;10334344;28;20111;-57
2022/09/02 14:46:32;;;;;;;18.88;14.82;;;;;;;20.04;97.69;97374.97;10333956;28;20469;-58
2022/09/02 14:51:38;;;;;;;19.67;16.27;;;;;;;19.88;100.00;97390.59;10334745;28;20072;-57
2022/09/02 14:56:51;;;;;;;21.15;16.65;;;;;;;19.87;100.00;97392.38;10333624;28;20087;-57
2022/09/02 15:01:53;;;;;;;31.00;20.02;;;;;;;19.72;100.00;97402.72;10334225;28;20152;-56
2022/09/02 15:06:52;;;;;;;32.35;19.65;;;;;;;19.56;100.00;97416.56;10333818;28;20076;-58
2022/09/02 15:11:53;;;;;;;34.08;20.05;;;;;;;19.32;100.00;97402.63;10333487;28;20033;-56
2022/09/02 15:16:53;;;;;;;37.22;20.50;;;;;;;19.45;100.00;97427.50;10332950;28;20092;-57
2022/09/02 15:21:52;;;;;;;35.40;21.30;;;;;;;19.43;100.00;97424.06;10333496;28;20072;-57
2022/09/02 15:26:51;;;;;;;45.33;21.40;;;;;;;19.22;100.00;97419.69;10332837;28;20017;-60
2022/09/02 15:31:51;;;;;;;34.85;20.73;;;;;;;18.43;100.00;97421.03;10332606;28;20087;-62
2022/09/02 15:36:50;;;;;;;35.88;20.50;;;;;;;18.20;100.00;97428.03;10332908;28;20061;-63
2022/09/02 15:41:50;;;;;;;39.42;22.55;;;;;;;18.15;100.00;97412.44;10331850;28;20069;-62
2022/09/02 15:46:49;;;;;;;37.00;21.58;;;;;;;18.01;100.00;97432.22;10331316;28;20510;-61
2022/09/02 15:51:49;;;;;;;38.40;23.70;;;;;;;17.90;100.00;97425.59;10332197;28;20489;-61
2022/09/02 15:56:53;;;;;;;44.95;24.33;;;;;;;18.01;100.00;97433.09;10331085;28;20056;-60
2022/09/02 16:01:54;;;;;;;40.58;24.05;;;;;;;18.21;100.00;97436.75;10331671;28;20072;-60
2022/09/02 16:06:53;;;;;;;44.00;25.17;;;;;;;18.33;100.00;97438.91;10331370;28;20065;-60
2022/09/02 16:11:54;;;;;;;44.95;25.23;;;;;;;18.42;100.00;97440.34;10331042;28;20071;-60
2022/09/02 16:16:54;;;;;;;47.22;25.73;;;;;;;18.45;100.00;97435.81;10331072;28;20121;-60
2022/09/02 16:21:53;;;;;;;51.45;26.75;;;;;;;18.50;100.00;97428.66;10330570;28;20067;-60
2022/09/02 16:26:52;;;;;;;49.40;27.25;;;;;;;18.46;100.00;97428.81;10331015;28;20027;-60
2022/09/02 16:31:51;;;;;;;49.10;27.13;;;;;;;18.51;100.00;97432.97;10329996;28;20025;-60
2022/09/02 16:36:50;;;;;;;47.53;25.50;;;;;;;18.58;100.00;97447.59;10329783;28;20033;-60
2022/09/02 16:41:52;;;;;;;43.58;24.52;;;;;;;18.58;100.00;97444.97;10330578;28;20061;-60
2022/09/02 16:46:52;;;;;;;48.97;26.05;;;;;;;18.48;100.00;97440.97;10329704;28;20408;-60
2022/09/02 16:51:51;;;;;;;53.38;28.00;;;;;;;18.49;100.00;97463.72;10328687;28;20487;-60
2022/09/02 16:56:49;;;;;;;52.45;27.17;;;;;;;18.37;100.00;97474.69;10329875;28;20407;-61
2022/09/02 17:01:48;;;;;;;55.63;27.13;;;;;;;18.07;100.00;97476.63;10328459;28;20040;-60
2022/09/02 17:06:47;;;;;;;45.85;23.00;;;;;;;17.89;100.00;97476.34;10329450;28;20076;-60
2022/09/02 17:11:46;;;;;;;50.28;24.40;;;;;;;17.67;100.00;97476.22;10329643;28;20026;-60
2022/09/02 17:16:47;;;;;;;45.88;25.27;;;;;;;17.75;100.00;97481.19;10328870;28;20072;-60
2022/09/02 17:21:51;;;;;;;42.58;24.80;;;;;;;17.77;100.00;97480.25;10328974;28;20667;-60
2022/09/02 17:26:54;;;;;;;43.50;23.95;;;;;;;17.85;100.00;97487.91;10329014;28;20061;-60
2022/09/02 17:31:53;;;;;;;47.05;24.25;;;;;;;17.84;100.00;97490.56;10328731;28;20065;-60
2022/09/02 17:36:52;;;;;;;44.35;24.02;;;;;;;17.87;100.00;97493.06;10328487;28;20399;-59
2022/09/02 17:41:53;;;;;;;44.15;25.15;;;;;;;17.93;100.00;97485.00;10335989;28;20041;-59
2022/09/02 17:46:54;;;;;;;42.90;23.15;;;;;;;17.96;100.00;97487.50;10336768;28;20069;-59
2022/09/02 17:51:53;;;;;;;43.53;23.50;;;;;;;18.00;100.00;97494.38;10336450;28;20061;-60
2022/09/02 17:56:56;;;;;;;38.38;22.40;;;;;;;18.03;100.00;97502.13;10336850;28;20038;-59
2022/09/02 18:02:01;;;;;;;43.17;23.33;;;;;;;18.06;100.00;97512.56;10336055;28;20060;-59
2022/09/02 18:07:13;;;;;;;35.40;21.80;;;;;;;18.08;100.00;97521.25;10335517;28;20953;-59
2022/09/02 18:12:12;;;;;;;35.03;21.73;;;;;;;18.05;100.00;97525.72;10335841;28;20076;-59
2022/09/02 18:17:26;;;;;;;35.63;21.55;;;;;;;18.06;100.00;97533.56;10335860;28;20065;-59
2022/09/02 18:22:54;;;;;;;38.10;21.67;;;;;;;18.08;100.00;97539.63;10336031;28;20497;-59
2022/09/02 18:28:11;;;;;;;30.70;18.77;;;;;;;17.99;100.00;97553.06;10332220;28;20069;-59
2022/09/02 18:33:45;;;;;;;19.73;7.80;;;;;;;17.58;100.00;97564.88;10335638;28;20081;-59
2022/09/02 18:39:10;;;;;;;8.95;4.65;;;;;;;17.31;100.00;97557.84;10334675;28;20468;-60
2022/09/02 18:44:15;;;;;;;8.32;3.80;;;;;;;17.15;100.00;97572.34;10334150;28;20073;-60
2022/09/02 18:49:14;;;;;;;5.38;2.45;;;;;;;16.91;100.00;97577.41;10335505;28;20064;-60
2022/09/02 18:54:44;;;;;;;3.90;1.80;;;;;;;16.72;100.00;97581.41;10334156;28;20427;-60
2022/09/02 19:00:02;;;;;;;3.08;1.73;;;;;;;16.60;100.00;97581.75;10325782;28;20077;-60
2022/09/02 19:05:05;;;;;;;2.22;1.50;;;;;;;16.61;100.00;97581.72;10333445;28;20068;-60
2022/09/02 19:10:07;;;;;;;2.65;1.77;;;;;;;16.68;100.00;97587.66;10333614;28;20479;-60
2022/09/02 19:15:09;;;;;;;2.95;1.52;;;;;;;16.68;100.00;97579.81;10333519;28;20091;-59
2022/09/02 19:20:08;;;;;;;2.70;1.30;;;;;;;16.66;100.00;97577.22;10333372;28;20061;-59
2022/09/02 19:25:14;;;;;;;5.18;1.30;;;;;;;16.70;100.00;97581.47;10333103;28;20067;-59
2022/09/02 19:30:20;;;;;;;7.35;4.07;;;;;;;16.77;100.00;97582.16;10333368;28;20521;-59
2022/09/02 19:35:23;;;;;;;2.10;1.52;;;;;;;16.82;100.00;97579.44;10332603;28;20060;-59
2022/09/02 19:40:32;;;;;;;4.40;1.50;;;;;;;16.65;100.00;97577.25;10332735;28;20065;-59
2022/09/02 19:45:34;;;;;;;2.60;1.20;;;;;;;16.60;100.00;97568.66;10365460;28;20134;-59
2022/09/02 19:50:42;;;;;;;9.38;4.13;;;;;;;16.63;100.00;97576.44;10373188;28;20603;-59
2022/09/02 19:55:41;;;;;;;4.55;2.20;;;;;;;16.61;100.00;97576.50;10372749;28;20585;-59
2022/09/02 20:00:41;;;;;;;1.65;1.10;;;;;;;16.58;100.00;97571.31;10364510;28;20407;-60
2022/09/02 20:05:40;;;;;;;3.78;1.42;;;;;;;16.64;100.00;97568.53;10329593;28;20088;-60
2022/09/02 20:10:39;;;;;;;2.35;1.58;;;;;;;16.61;100.00;97563.38;10331530;28;20035;-60
2022/09/02 20:15:38;;;;;;;;;;;;;;;16.64;100.00;97567.69;10331761;28;20116;-60
2022/09/02 20:20:41;;;;;;;2.90;1.50;;;;;;;16.70;100.00;97567.53;10330939;28;19963;-60
2022/09/02 20:26:26;;;;;;;4.43;3.15;;;;;;;16.79;100.00;97575.09;10329856;28;20076;-59
2022/09/02 20:31:43;;;;;;;5.60;2.85;;;;;;;16.77;100.00;97582.16;10313117;28;20080;-60
2022/09/02 20:36:50;;;;;;;3.90;2.58;;;;;;;16.59;100.00;97582.69;10329804;28;20075;-61
2022/09/02 20:42:04;;;;;;;3.90;2.92;;;;;;;16.51;100.00;97586.38;10329925;28;20487;-60
2022/09/02 20:47:23;;;;;;;4.85;2.72;;;;;;;16.33;100.00;97589.47;10290320;28;20084;-59
2022/09/02 20:52:31;;;;;;;3.17;2.67;;;;;;;16.11;100.00;97590.94;10289145;28;20555;-59
2022/09/02 20:57:36;;;;;;;3.88;3.08;;;;;;;15.95;100.00;97595.69;10288467;28;20072;-59
2022/09/02 21:02:41;;;;;;;4.47;3.53;;;;;;;15.82;100.00;97593.38;10288928;28;20069;-58
2022/09/02 21:07:45;;;;;;;4.00;3.40;;;;;;;15.79;100.00;97590.00;10288935;28;20555;-59
2022/09/02 21:13:07;;;;;;;3.60;2.97;;;;;;;15.77;100.00;97597.00;10318572;28;20072;-58
2022/09/02 21:18:20;;;;;;;4.80;3.55;;;;;;;15.77;100.00;97612.69;10289607;28;20468;-59
2022/09/02 21:23:29;;;;;;;7.22;3.50;;;;;;;15.73;100.00;97609.28;10288255;28;20077;-58
2022/09/02 21:28:35;;;;;;;;;;;;;;;15.55;100.00;97599.25;10289263;28;20097;-58
2022/09/02 21:33:34;;;;;;;5.22;3.40;;;;;;;15.53;100.00;97607.16;10288667;28;19948;-58
2022/09/02 21:38:43;;;;;;;4.50;3.58;;;;;;;15.54;100.00;97610.63;10314996;28;20467;-58
2022/09/02 21:44:06;;;;;;;3.92;2.90;;;;;;;15.46;100.00;97613.41;10326892;28;20092;-58
2022/09/02 21:49:26;;;;;;;3.45;2.75;;;;;;;15.45;100.00;97624.75;10329744;28;20166;-58
2022/09/02 21:54:38;;;;;;;3.65;2.72;;;;;;;15.41;100.00;97629.22;10328338;28;20073;-58
2022/09/02 21:59:52;;;;;;;3.40;2.35;;;;;;;15.36;100.00;97633.66;10327031;28;20073;-58
2022/09/02 22:05:01;;;;;;;3.13;2.50;;;;;;;15.33;100.00;97627.66;10327099;28;20084;-58
2022/09/02 22:10:18;;;;;;;4.80;2.83;;;;;;;15.38;100.00;97641.47;10325332;28;20083;-58
2022/09/02 22:15:32;;;;;;;3.63;2.67;;;;;;;15.42;100.00;97637.91;10322486;28;20068;-58
2022/09/02 22:20:42;;;;;;;3.17;2.88;;;;;;;15.40;100.00;97626.63;10324498;28;20077;-58
2022/09/02 22:25:41;;;;;;;4.75;3.08;;;;;;;15.42;100.00;97633.53;10327690;28;20120;-58
2022/09/02 22:30:48;;;;;;;2.70;2.38;;;;;;;15.45;100.00;97632.59;10332886;28;20132;-58
2022/09/02 22:36:03;;;;;;;3.08;2.58;;;;;;;15.50;100.00;97633.34;10335125;28;20061;-59
2022/09/02 22:41:14;;;;;;;5.15;2.40;;;;;;;15.43;100.00;97622.16;10334490;28;20502;-59
2022/09/02 22:58:01;;;;;;;4.13;2.88;;;;;;;15.40;100.00;97626.63;10334111;28;20077;-58
2022/09/02 23:03:06;;;;;;;3.67;3.22;;;;;;;15.42;100.00;97622.22;10334287;28;20152;-57
2022/09/02 23:08:06;;;;;;;4.85;2.70;;;;;;;15.39;100.00;97623.16;10333366;28;20068;-57
2022/09/02 23:13:13;;;;;;;3.65;2.40;;;;;;;15.37;100.00;97624.09;10334203;28;20064;-57
2022/09/02 23:18:55;;;;;;;5.03;2.20;;;;;;;15.21;100.00;97627.00;10333125;28;20065;-57